地図

経路データ

SID SEASON NUMBER BASIN SUBBASIN NAME ISO_TIME NATURE LAT LON WMO_WIND WMO_PRES WMO_AGENCY TRACK_TYPE DIST2LAND LANDFALL IFLAG USA_AGENCY USA_ATCF_ID USA_LAT USA_LON USA_RECORD USA_STATUS USA_WIND USA_PRES USA_SSHS USA_R34_NE USA_R34_SE USA_R34_SW USA_R34_NW USA_R50_NE USA_R50_SE USA_R50_SW USA_R50_NW USA_R64_NE USA_R64_SE USA_R64_SW USA_R64_NW USA_POCI USA_ROCI USA_RMW USA_EYE TOKYO_LAT TOKYO_LON TOKYO_GRADE TOKYO_WIND TOKYO_PRES TOKYO_R50_DIR TOKYO_R50_LONG TOKYO_R50_SHORT TOKYO_R30_DIR TOKYO_R30_LONG TOKYO_R30_SHORT TOKYO_LAND CMA_LAT CMA_LON CMA_CAT CMA_WIND CMA_PRES HKO_LAT HKO_LON HKO_CAT HKO_WIND HKO_PRES NEWDELHI_LAT NEWDELHI_LON NEWDELHI_GRADE NEWDELHI_WIND NEWDELHI_PRES NEWDELHI_CI NEWDELHI_DP NEWDELHI_POCI REUNION_LAT REUNION_LON REUNION_TYPE REUNION_WIND REUNION_PRES REUNION_TNUM REUNION_CI REUNION_RMW REUNION_R34_NE REUNION_R34_SE REUNION_R34_SW REUNION_R34_NW REUNION_R50_NE REUNION_R50_SE REUNION_R50_SW REUNION_R50_NW REUNION_R64_NE REUNION_R64_SE REUNION_R64_SW REUNION_R64_NW BOM_LAT BOM_LON BOM_TYPE BOM_WIND BOM_PRES BOM_TNUM BOM_CI BOM_RMW BOM_R34_NE BOM_R34_SE BOM_R34_SW BOM_R34_NW BOM_R50_NE BOM_R50_SE BOM_R50_SW BOM_R50_NW BOM_R64_NE BOM_R64_SE BOM_R64_SW BOM_R64_NW BOM_ROCI BOM_POCI BOM_EYE BOM_POS_METHOD BOM_PRES_METHOD NADI_LAT NADI_LON NADI_CAT NADI_WIND NADI_PRES WELLINGTON_LAT WELLINGTON_LON WELLINGTON_WIND WELLINGTON_PRES DS824_LAT DS824_LON DS824_STAGE DS824_WIND DS824_PRES TD9636_LAT TD9636_LON TD9636_STAGE TD9636_WIND TD9636_PRES TD9635_LAT TD9635_LON TD9635_WIND TD9635_PRES TD9635_ROCI NEUMANN_LAT NEUMANN_LON NEUMANN_CLASS NEUMANN_WIND NEUMANN_PRES MLC_LAT MLC_LON MLC_CLASS MLC_WIND MLC_PRES USA_GUST BOM_GUST BOM_GUST_PER REUNION_GUST REUNION_GUST_PER USA_SEAHGT USA_SEARAD_NE USA_SEARAD_SE USA_SEARAD_SW USA_SEARAD_NW STORM_SPEED STORM_DIR
1983264N15248 1983 59 EP MM NARDA 1983-09-21 00:00:00 TS 15.1000 -112.000 25 hurdat_epa main 877 877 O_________O___ hurdat_epa EP141983 15.1000 -112.000 TD 25 -1 15.1000 -112.000 1 25 9 277
1983264N15248 1983 59 EP MM NARDA 1983-09-21 03:00:00 TS 15.1503 -112.449 main 897 897 P_________P___ EP141983 15.1377 -112.450 TD 30 -1 15.1881 -112.445 1 27 9 278
1983264N15248 1983 59 EP MM NARDA 1983-09-21 06:00:00 TS 15.2177 -112.898 35 hurdat_epa main 913 910 O_________P___ hurdat_epa EP141983 15.2000 -112.900 TS 35 0 15.2707 -112.892 1 30 9 280
1983264N15248 1983 59 EP MM NARDA 1983-09-21 09:00:00 TS 15.3107 -113.348 main 918 915 P_________P___ EP141983 15.2999 -113.350 TS 35 0 15.3429 -113.343 1 32 9 282
1983264N15248 1983 59 EP MM NARDA 1983-09-21 12:00:00 TS 15.4000 -113.800 35 hurdat_epa main 928 928 O_________O___ hurdat_epa EP141983 15.4000 -113.800 TS 35 0 15.4000 -113.800 2 35 9 280
1983264N15248 1983 59 EP MM NARDA 1983-09-21 15:00:00 TS 15.4584 -114.248 main 937 937 P_________P___ EP141983 15.4649 -114.243 TS 35 0 15.4391 -114.264 2 35 9 276
1983264N15248 1983 59 EP MM NARDA 1983-09-21 18:00:00 TS 15.4911 -114.709 35 hurdat_epa main 963 963 O_________P___ hurdat_epa EP141983 15.5000 -114.700 TS 35 0 15.4646 -114.735 2 35 9 273
1983264N15248 1983 59 EP MM NARDA 1983-09-21 21:00:00 TS 15.5013 -115.198 main 991 991 P_________P___ EP141983 15.5074 -115.193 TS 35 0 15.4828 -115.214 2 35 10 271
1983264N15248 1983 59 EP MM NARDA 1983-09-22 00:00:00 TS 15.5000 -115.700 35 hurdat_epa main 1021 1021 O_________O___ hurdat_epa EP141983 15.5000 -115.700 TS 35 0 15.5000 -115.700 2 35 10 270
1983264N15248 1983 59 EP MM NARDA 1983-09-22 03:00:00 TS 15.4995 -116.199 main 1052 1052 P_________P___ EP141983 15.4924 -116.200 TS 35 0 15.5207 -116.197 2 35 10 271
1983264N15248 1983 59 EP MM NARDA 1983-09-22 06:00:00 TS 15.5106 -116.700 35 hurdat_epa main 1085 1085 O_________P___ hurdat_epa EP141983 15.5000 -116.700 TS 35 0 15.5422 -116.700 2 35 10 273
1983264N15248 1983 59 EP MM NARDA 1983-09-22 09:00:00 TS 15.5487 -117.206 main 1120 1112 P_________P___ EP141983 15.5424 -117.207 TS 35 0 15.5676 -117.203 2 35 10 275
1983264N15248 1983 59 EP MM NARDA 1983-09-22 12:00:00 TS 15.6000 -117.700 35 hurdat_epa main 1148 1148 O_________O___ hurdat_epa EP141983 15.6000 -117.700 TS 35 0 15.6000 -117.700 2 35 9 276
1983264N15248 1983 59 EP MM NARDA 1983-09-22 15:00:00 TS 15.6490 -118.158 main 1185 1178 P_________P___ EP141983 15.6498 -118.150 TS 35 0 15.6465 -118.182 2 35 9 276
1983264N15248 1983 59 EP MM NARDA 1983-09-22 18:00:00 TS 15.6999 -118.614 35 hurdat_epa main 1208 1208 O_________P___ hurdat_epa EP141983 15.7000 -118.600 TS 35 0 15.6995 -118.657 2 35 9 277
1983264N15248 1983 59 EP MM NARDA 1983-09-22 21:00:00 TS 15.7563 -119.102 main 1233 1233 P_________P___ EP141983 15.7574 -119.092 TS 35 0 15.7528 -119.129 2 35 10 276
1983264N15248 1983 59 EP MM NARDA 1983-09-23 00:00:00 TS 15.8000 -119.600 35 hurdat_epa main 1265 1265 O_________O___ hurdat_epa EP141983 15.8000 -119.600 TS 35 0 15.8000 -119.600 2 35 10 273
1983264N15248 1983 59 EP MM NARDA 1983-09-23 03:00:00 TS 15.8089 -120.098 main 1298 1298 P_________P___ EP141983 15.7999 -120.108 TS 37 0 15.8359 -120.071 2 38 9 271
1983264N15248 1983 59 EP MM NARDA 1983-09-23 06:00:00 TS 15.8161 -120.586 40 hurdat_epa main 1332 1332 O_________P___ hurdat_epa EP141983 15.8000 -120.600 TS 40 0 15.8645 -120.543 2 42 9 273
1983264N15248 1983 59 EP MM NARDA 1983-09-23 09:00:00 TS 15.8532 -121.042 main 1351 1351 P_________P___ EP141983 15.8423 -121.050 TS 45 0 15.8859 -121.018 2 46 9 275
1983264N15248 1983 59 EP MM NARDA 1983-09-23 12:00:00 TS 15.9000 -121.500 50 hurdat_epa main 1387 1387 O_________O___ hurdat_epa EP141983 15.9000 -121.500 TS 50 0 15.9000 -121.500 2 50 9 276
1983264N15248 1983 59 EP MM NARDA 1983-09-23 15:00:00 TS 15.9505 -121.998 main 1417 1417 P_________P___ EP141983 15.9649 -121.992 TS 47 0 15.9072 -122.013 2 48 10 275
1983264N15248 1983 59 EP MM NARDA 1983-09-23 18:00:00 TS 15.9769 -122.508 45 hurdat_epa main 1454 1454 O_________P___ hurdat_epa EP141983 16.0000 -122.500 TS 45 0 15.9076 -122.530 2 47 10 270
1983264N15248 1983 59 EP MM NARDA 1983-09-23 21:00:00 TS 15.9441 -123.019 main 1501 1501 P_________P___ EP141983 15.9575 -123.015 TS 45 0 15.9042 -123.032 2 46 10 265
1983264N15248 1983 59 EP MM NARDA 1983-09-24 00:00:00 TS 15.9000 -123.500 45 hurdat_epa main 1540 1540 O_________O___ hurdat_epa EP141983 15.9000 -123.500 TS 45 0 15.9000 -123.500 2 45 9 267
1983264N15248 1983 59 EP MM NARDA 1983-09-24 03:00:00 TS 15.8931 -123.919 main 1572 1572 P_________P___ EP141983 15.8924 -123.922 TS 45 0 15.8953 -123.907 2 45 8 270
1983264N15248 1983 59 EP MM NARDA 1983-09-24 06:00:00 TS 15.8979 -124.295 45 hurdat_epa main 1605 1605 O_________P___ hurdat_epa EP141983 15.9000 -124.300 TS 45 0 15.8917 -124.280 2 45 7 270
1983264N15248 1983 59 EP MM NARDA 1983-09-24 09:00:00 TS 15.8980 -124.647 main 1629 1629 P_________P___ EP141983 15.8999 -124.650 TS 45 0 15.8923 -124.638 2 45 7 270
1983264N15248 1983 59 EP MM NARDA 1983-09-24 12:00:00 TS 15.9000 -125.000 45 hurdat_epa main 1662 1662 O_________O___ hurdat_epa EP141983 15.9000 -125.000 TS 45 0 15.9000 -125.000 2 45 7 270
1983264N15248 1983 59 EP MM NARDA 1983-09-24 15:00:00 TS 15.8987 -125.390 main 1696 1696 P_________P___ EP141983 15.8925 -125.393 TS 45 0 15.9175 -125.381 2 45 8 271
1983264N15248 1983 59 EP MM NARDA 1983-09-24 18:00:00 TS 15.9105 -125.793 45 hurdat_epa main 1725 1725 O_________P___ hurdat_epa EP141983 15.9000 -125.800 TS 45 0 15.9420 -125.770 2 45 8 274
1983264N15248 1983 59 EP MM NARDA 1983-09-24 21:00:00 TS 15.9551 -126.188 main 1743 1743 P_________P___ EP141983 15.9499 -126.192 TS 45 0 15.9706 -126.174 2 45 8 277
1983264N15248 1983 59 EP MM NARDA 1983-09-25 00:00:00 TS 16.0000 -126.600 45 hurdat_epa main 1770 1770 O_________O___ hurdat_epa EP141983 16.0000 -126.600 TS 45 0 16.0000 -126.600 2 45 8 273
1983264N15248 1983 59 EP MM NARDA 1983-09-25 03:00:00 TS 16.0041 -127.037 main 1798 1798 P_________P___ EP141983 15.9999 -127.035 TS 45 0 16.0166 -127.041 2 43 9 271
1983264N15248 1983 59 EP MM NARDA 1983-09-25 06:00:00 TS 16.0086 -127.501 45 hurdat_epa main 1834 1834 O_________P___ hurdat_epa EP141983 16.0000 -127.500 TS 45 0 16.0345 -127.505 2 42 9 272
1983264N15248 1983 59 EP MM NARDA 1983-09-25 09:00:00 TS 16.0356 -127.987 main 1870 1870 P_________P___ EP141983 16.0274 -127.985 TS 42 0 16.0602 -127.992 2 41 10 275
1983264N15248 1983 59 EP MM NARDA 1983-09-25 12:00:00 TS 16.1000 -128.500 40 hurdat_epa main 1899 1899 O_________O___ hurdat_epa EP141983 16.1000 -128.500 TS 40 0 16.1000 -128.500 2 40 10 281
1983264N15248 1983 59 EP MM NARDA 1983-09-25 15:00:00 TS 16.2341 -129.036 main 1929 1929 P_________P___ EP141983 16.2574 -129.042 TS 40 0 16.1643 -129.016 2 40 11 284
1983264N15248 1983 59 EP MM NARDA 1983-09-25 18:00:00 TS 16.3605 -129.589 40 hurdat_epa main 1961 1961 O_________P___ hurdat_epa EP141983 16.4000 -129.600 TS 40 0 16.2419 -129.555 2 40 11 279
1983264N15248 1983 59 EP MM NARDA 1983-09-25 21:00:00 TS 16.3920 -130.136 main 2000 2000 P_________P___ EP141983 16.4148 -130.143 TS 40 0 16.3236 -130.116 2 40 11 272
1983264N15248 1983 59 EP MM NARDA 1983-09-26 00:00:00 TS 16.4000 -130.700 40 hurdat_epa main 2048 2048 O_________O___ hurdat_epa EP141983 16.4000 -130.700 TS 40 0 16.4000 -130.700 2 40 11 273
1983264N15248 1983 59 EP MM NARDA 1983-09-26 03:00:00 TS 16.4449 -131.287 main 2097 2097 P_________P___ EP141983 16.4423 -131.285 TS 35 0 16.4526 -131.292 2 37 12 275
1983264N15248 1983 59 EP MM NARDA 1983-09-26 06:00:00 TS 16.4998 -131.901 30 hurdat_epa main 2139 2139 O_________P___ hurdat_epa EP141983 16.5000 -131.900 TD 30 -1 16.4992 -131.906 2 35 12 275
1983264N15248 1983 59 EP MM NARDA 1983-09-26 09:00:00 TS 16.5433 -132.537 main 2190 2190 P_________P___ EP141983 16.5423 -132.535 TD 30 -1 16.5462 -132.542 2 32 13 275
1983264N15248 1983 59 EP MM NARDA 1983-09-26 12:00:00 TS 16.6000 -133.200 30 hurdat_epa main 2242 2240 O_________O___ hurdat_epa EP141983 16.6000 -133.200 TD 30 -1 16.6000 -133.200 1 30 13 277
1983264N15248 1983 59 EP MM NARDA 1983-09-26 15:00:00 TS 16.6907 -133.887 main 2229 2154 P_________P___ EP141983 16.6998 -133.892 TD 30 -1 16.6632 -133.870 1 30 13 278
1983264N15248 1983 59 EP MM NARDA 1983-09-26 18:00:00 TS 16.7835 -134.591 30 hurdat_epa main 2154 2091 O_________P___ hurdat_epa EP141983 16.8000 -134.600 TD 30 -1 16.7342 -134.563 1 30 14 276
1983264N15248 1983 59 EP MM NARDA 1983-09-26 21:00:00 TS 16.8405 -135.288 main 2081 2006 P_________P___ EP141983 16.8497 -135.293 TD 30 -1 16.8131 -135.274 1 30 14 275
1983264N15248 1983 59 EP MM NARDA 1983-09-27 00:00:00 TS 16.9000 -136.000 30 hurdat_epa main 2006 1930 O_________O___ hurdat_epa EP141983 16.9000 -136.000 TD 30 -1 16.9000 -136.000 1 30 14 276
1983264N15248 1983 59 EP MM NARDA 1983-09-27 03:00:00 TS 16.9962 -136.737 main 1930 1855 P_________P___ EP141983 16.9923 -136.742 TD 30 -1 17.0081 -136.719 1 30 14 278
1983264N15248 1983 59 EP MM NARDA 1983-09-27 06:00:00 TS 17.1053 -137.489 30 hurdat_epa main 1845 1770 O_________P___ hurdat_epa EP141983 17.1000 -137.500 TD 30 -1 17.1210 -137.455 1 30 14 279
1983264N15248 1983 59 EP MM NARDA 1983-09-27 09:00:00 TS 17.2280 -138.224 main 1770 1684 P_________P___ EP141983 17.2295 -138.227 TD 30 -1 17.2235 -138.213 1 30 15 278
1983264N15248 1983 59 EP MM NARDA 1983-09-27 12:00:00 TS 17.3000 -139.000 30 hurdat_epa main 1684 1603 O_________O___ hurdat_epa EP141983 17.3000 -139.000 TD 30 -1 17.3000 -139.000 1 30 16 270
1983264N15248 1983 59 EP MM NARDA 1983-09-27 15:00:00 TS 17.2290 -139.874 main 1593 1509 P_________P___ EP141983 17.2001 -139.893 TD 27 -1 17.3158 -139.814 1 31 17 265
1983264N15248 1983 59 EP CP NARDA 1983-09-27 18:00:00 TS 17.1486 -140.766 25 hurdat_epa main 1501 1426 O_________P___ hurdat_epa EP141983 17.1000 -140.800 TD 25 -1 17.3064 -140.657 1 32 16 269
1983264N15248 1983 59 EP CP NARDA 1983-09-27 21:00:00 TS 17.2070 -141.593 main 1416 1331 P_________P___ EP141983 17.1770 -141.615 TD 30 -1 17.2938 -141.521 1 33 16 276
1983264N15248 1983 59 EP CP NARDA 1983-09-28 00:00:00 TS 17.3000 -142.400 35 hurdat_epa main 1331 1258 O_________O___ hurdat_epa EP141983 17.3000 -142.400 TS 35 0 17.3000 -142.400 2 35 15 275
1983264N15248 1983 59 EP CP NARDA 1983-09-28 03:00:00 TS 17.3515 -143.190 main 1245 1163 P_________P___ EP141983 17.3493 -143.170 TS 35 0 17.3601 -143.269 2 36 16 274
1983264N15248 1983 59 EP CP NARDA 1983-09-28 06:00:00 TS 17.4081 -144.031 35 hurdat_epa main 1163 1067 O_________P___ hurdat_epa EP141983 17.4000 -144.000 TS 35 0 17.4405 -144.154 2 37 17 275
1983264N15248 1983 59 EP CP NARDA 1983-09-28 09:00:00 TS 17.4990 -144.989 main 1057 961 P_________P___ EP141983 17.4924 -144.970 TS 37 0 17.5256 -145.063 2 38 19 276
1983264N15248 1983 59 EP CP NARDA 1983-09-28 12:00:00 TS 17.6000 -146.000 40 hurdat_epa main 951 856 O_________O___ hurdat_epa EP141983 17.6000 -146.000 TS 40 0 17.6000 -146.000 2 40 19 276
1983264N15248 1983 59 EP CP NARDA 1983-09-28 15:00:00 TS 17.7104 -147.002 main 846 741 P_________P___ EP141983 17.7220 -147.000 TS 42 0 17.6643 -147.011 2 43 19 275
1983264N15248 1983 59 EP CP NARDA 1983-09-28 18:00:00 TS 17.7822 -148.009 45 hurdat_epa main 741 639 O_________P___ hurdat_epa EP141983 17.8000 -148.000 TS 45 0 17.7109 -148.044 2 47 19 272
1983264N15248 1983 59 EP CP NARDA 1983-09-28 21:00:00 TS 17.7694 -149.044 main 639 544 P_________P___ EP141983 17.7801 -149.045 TS 50 0 17.7269 -149.055 2 51 19 268
1983264N15248 1983 59 EP CP NARDA 1983-09-29 00:00:00 TS 17.7000 -150.000 55 hurdat_epa main 544 481 O_________O___ hurdat_epa EP141983 17.7000 -150.000 TS 55 0 17.7000 -150.000 2 55 17 265
1983264N15248 1983 59 EP CP NARDA 1983-09-29 03:00:00 TS 17.6170 -150.775 main 472 422 P_________P___ EP141983 17.6140 -150.730 TS 57 0 17.6284 -150.842 2 56 14 262
1983264N15248 1983 59 EP CP NARDA 1983-09-29 06:00:00 TS 17.5030 -151.482 60 hurdat_epa main 413 361 O_________P___ hurdat_epa EP141983 17.5000 -151.400 TS 60 0 17.5152 -151.612 2 57 14 260
1983264N15248 1983 59 EP CP NARDA 1983-09-29 09:00:00 TS 17.3659 -152.254 main 353 315 P_________P___ EP141983 17.3651 -152.207 TS 60 0 17.3695 -152.326 2 58 15 258
1983264N15248 1983 59 EP CP NARDA 1983-09-29 12:00:00 TS 17.2000 -153.000 60 hurdat_epa main 315 292 O_________O___ hurdat_epa EP141983 17.2000 -153.000 TS 60 0 17.2000 -153.000 2 60 14 255
1983264N15248 1983 59 EP CP NARDA 1983-09-29 15:00:00 TS 17.0130 -153.671 main 291 274 P_________P___ EP141983 17.0071 -153.680 TS 45 0 17.0364 -153.648 2 56 13 252
1983264N15248 1983 59 EP CP NARDA 1983-09-29 18:00:00 TS 16.8101 -154.293 30 hurdat_epa main 277 263 O_________P___ hurdat_epa EP141983 16.8000 -154.300 TD 30 -1 16.8506 -154.264 2 52 12 251
1983264N15248 1983 59 EP CP NARDA 1983-09-29 21:00:00 TS 16.6196 -154.888 main 270 265 P_________P___ EP141983 16.6146 -154.892 TD 37 0 16.6396 -154.873 2 48 12 250
1983264N15248 1983 59 EP CP NARDA 1983-09-30 00:00:00 TS 16.4000 -155.500 45 hurdat_epa main 280 279 O_________O___ hurdat_epa EP141983 16.4000 -155.500 TS 45 0 16.4000 -155.500 2 45 13 248
1983264N15248 1983 59 EP CP NARDA 1983-09-30 03:00:00 TS 16.1119 -156.183 main 317 317 P_________P___ EP141983 16.1149 -156.185 TS 45 0 16.0999 -156.175 2 45 15 246
1983264N15248 1983 59 EP CP NARDA 1983-09-30 06:00:00 TS 15.7954 -156.894 45 hurdat_epa main 369 369 O_________P___ hurdat_epa EP141983 15.8000 -156.900 TS 45 0 15.7769 -156.871 2 45 15 245
1983264N15248 1983 59 EP CP NARDA 1983-09-30 09:00:00 TS 15.4809 -157.596 main 430 430 P_________P___ EP141983 15.4848 -157.600 TS 45 0 15.4654 -157.581 2 45 15 246
1983264N15248 1983 59 EP CP NARDA 1983-09-30 12:00:00 TS 15.2000 -158.300 45 hurdat_epa main 497 497 O_________O___ hurdat_epa EP141983 15.2000 -158.300 TS 45 0 15.2000 -158.300 2 45 14 249
1983264N15248 1983 59 EP CP NARDA 1983-09-30 15:00:00 TS 14.9710 -158.998 main 560 560 P_________P___ EP141983 14.9622 -158.992 TS 50 0 15.0059 -159.022 2 40 14 254
1983264N15248 1983 59 EP CP NARDA 1983-09-30 18:00:00 TS 14.8143 -159.709 55 hurdat_epa main 625 625 O_________P___ hurdat_epa EP141983 14.8000 -159.700 TS 55 0 14.8717 -159.747 2 35 14 260
1983264N15248 1983 59 EP CP NARDA 1983-09-30 21:00:00 TS 14.7358 -160.447 main 686 686 P_________P___ EP141983 14.7255 -160.440 TS 40 0 14.7767 -160.473 2 30 14 265
1983264N15248 1983 59 EP CP NARDA 1983-10-01 00:00:00 TS 14.7000 -161.200 25 hurdat_epa main 748 O_________O___ hurdat_epa EP141983 14.7000 -161.200 TD 25 -1 14.7000 -161.200 1 25 15 267

IBTrACS Databaseについて

本データベースは、米国NOAAが公開する1842年以降の世界の熱帯低気圧のベストトラックデータアーカイブInternational Best Track Archive for Climate Stewardship (IBTrACS)を、ウェブで閲覧しやすい形式に変換したものです。

最終更新日:2021-10-08